CCA4201 ZUUU-ZWWW
Flight info
| Callsign | CCA4201 |
|---|---|
| Flight time | N/A |
| Altitude | 34100 |
| Route | BOKIR9W BOKIR W179 OMBON W195 LAXAL/K0861S0980 W195 IDOPA W197 ANDIM B215 OMGUP/K0856S1040 B215 IBANO G470 QTV W99 AGOXA AGOXA5U |
| Aircraft | A321/M-SDE3FGHIRWY/LB1 |
Departure
| Time | 2026-05-01 08:22 |
|---|---|
| Airport | Chengdu Shuangliu International Airport (ZUUU) |
Arrival
| Time | N/A |
|---|---|
| Airport | Ürümqi Tianshan International Airport (ZWWW) |
| Time | Latitude | Longitude | Altitude | Speed | Heading |
|---|---|---|---|---|---|
| 2026-05-01 08:09 | 30.56894 | 103.95077 | 1647 ft | 0 kts | 28° |
| 2026-05-01 08:13 | 30.56892 | 103.95075 | 1647 ft | 0 kts | 28° |
| 2026-05-01 08:14 | 30.56882 | 103.95070 | 1647 ft | 2 kts | 28° |
| 2026-05-01 08:14 | 30.56868 | 103.95061 | 1647 ft | 2 kts | 28° |
| 2026-05-01 08:14 | 30.56853 | 103.95052 | 1647 ft | 2 kts | 18° |
| 2026-05-01 08:14 | 30.56838 | 103.95048 | 1647 ft | 2 kts | 352° |
| 2026-05-01 08:15 | 30.56822 | 103.95054 | 1647 ft | 2 kts | 300° |
| 2026-05-01 08:15 | 30.56821 | 103.95056 | 1647 ft | 0 kts | 292° |
| 2026-05-01 08:17 | 30.56826 | 103.95041 | 1647 ft | 7 kts | 292° |
| 2026-05-01 08:17 | 30.56858 | 103.94952 | 1647 ft | 17 kts | 292° |
| 2026-05-01 08:18 | 30.56910 | 103.94804 | 1647 ft | 21 kts | 292° |
| 2026-05-01 08:18 | 30.56889 | 103.94575 | 1647 ft | 15 kts | 200° |
| 2026-05-01 08:19 | 30.56644 | 103.94461 | 1647 ft | 22 kts | 201° |
| 2026-05-01 08:19 | 30.56546 | 103.94414 | 1647 ft | 10 kts | 204° |
| 2026-05-01 08:19 | 30.56483 | 103.94384 | 1647 ft | 13 kts | 201° |
| 2026-05-01 08:19 | 30.56365 | 103.94330 | 1647 ft | 22 kts | 201° |
| 2026-05-01 08:20 | 30.56283 | 103.94284 | 1647 ft | 8 kts | 227° |
| 2026-05-01 08:20 | 30.56278 | 103.94228 | 1647 ft | 6 kts | 283° |
| 2026-05-01 08:20 | 30.56301 | 103.94155 | 1647 ft | 14 kts | 291° |
| 2026-05-01 08:20 | 30.56343 | 103.94048 | 1647 ft | 14 kts | 309° |
| 2026-05-01 08:21 | 30.56424 | 103.94041 | 1648 ft | 11 kts | 21° |
| 2026-05-01 08:21 | 30.56507 | 103.94080 | 1649 ft | 22 kts | 21° |
| 2026-05-01 08:21 | 30.56860 | 103.94242 | 1648 ft | 86 kts | 21° |
| 2026-05-01 08:21 | 30.57587 | 103.94579 | 1646 ft | 136 kts | 21° |
| 2026-05-01 08:22 | 30.58595 | 103.95046 | 1652 ft | 174 kts | 21° |
| 2026-05-01 08:22 | 30.59729 | 103.95574 | 2151 ft | 174 kts | 20° |
| 2026-05-01 08:22 | 30.60840 | 103.96091 | 2756 ft | 174 kts | 22° |
| 2026-05-01 08:22 | 30.62018 | 103.96642 | 3096 ft | 189 kts | 23° |
| 2026-05-01 08:23 | 30.63298 | 103.97238 | 3226 ft | 207 kts | 23° |
| 2026-05-01 08:23 | 30.64690 | 103.97885 | 3368 ft | 230 kts | 22° |
| 2026-05-01 08:23 | 30.66249 | 103.98610 | 3745 ft | 249 kts | 22° |
| 2026-05-01 08:23 | 30.67870 | 103.99397 | 4368 ft | 255 kts | 29° |
| 2026-05-01 08:24 | 30.69215 | 104.00745 | 4963 ft | 259 kts | 51° |
| 2026-05-01 08:24 | 30.70210 | 104.02513 | 5582 ft | 264 kts | 59° |
| 2026-05-01 08:24 | 30.71073 | 104.04411 | 6203 ft | 267 kts | 62° |
| 2026-05-01 08:24 | 30.71924 | 104.06364 | 6754 ft | 272 kts | 61° |
| 2026-05-01 08:25 | 30.72804 | 104.08322 | 7321 ft | 275 kts | 60° |
| 2026-05-01 08:25 | 30.73729 | 104.10285 | 7869 ft | 279 kts | 60° |
| 2026-05-01 08:25 | 30.74697 | 104.12265 | 8420 ft | 283 kts | 60° |
| 2026-05-01 08:25 | 30.75723 | 104.14227 | 9042 ft | 284 kts | 52° |
| 2026-05-01 08:26 | 30.77272 | 104.15655 | 9553 ft | 291 kts | 24° |
| 2026-05-01 08:26 | 30.79193 | 104.16464 | 10017 ft | 297 kts | 20° |
| 2026-05-01 08:26 | 30.81194 | 104.17283 | 10184 ft | 314 kts | 20° |
| 2026-05-01 08:26 | 30.83312 | 104.18164 | 10310 ft | 332 kts | 20° |
| 2026-05-01 08:27 | 30.85546 | 104.19105 | 10433 ft | 350 kts | 20° |
| 2026-05-01 08:27 | 30.87889 | 104.20099 | 10548 ft | 367 kts | 20° |
| 2026-05-01 08:27 | 30.90307 | 104.21126 | 10667 ft | 382 kts | 20° |
| 2026-05-01 08:27 | 30.92845 | 104.22209 | 10899 ft | 393 kts | 20° |
| 2026-05-01 08:28 | 30.95460 | 104.23326 | 11314 ft | 398 kts | 20° |
| 2026-05-01 08:28 | 30.98025 | 104.24463 | 11718 ft | 402 kts | 21° |
| 2026-05-01 08:28 | 31.00643 | 104.25723 | 12113 ft | 407 kts | 22° |
| 2026-05-01 08:28 | 31.03260 | 104.27042 | 12479 ft | 412 kts | 22° |
| 2026-05-01 08:29 | 31.05904 | 104.28398 | 12835 ft | 417 kts | 22° |
| 2026-05-01 08:29 | 31.08579 | 104.29773 | 13184 ft | 422 kts | 22° |
| 2026-05-01 08:29 | 31.11283 | 104.31150 | 13521 ft | 426 kts | 22° |
| 2026-05-01 08:29 | 31.13986 | 104.32511 | 13850 ft | 430 kts | 21° |
| 2026-05-01 08:30 | 31.16752 | 104.33892 | 14200 ft | 433 kts | 21° |
| 2026-05-01 08:30 | 31.19528 | 104.35273 | 14556 ft | 434 kts | 21° |
| 2026-05-01 08:30 | 31.22322 | 104.36618 | 14895 ft | 434 kts | 17° |
| 2026-05-01 08:30 | 31.25234 | 104.37507 | 15241 ft | 433 kts | 7° |
| 2026-05-01 08:31 | 31.28225 | 104.37805 | 15603 ft | 431 kts | 357° |
| 2026-05-01 08:31 | 31.31217 | 104.37649 | 15944 ft | 431 kts | 354° |
| 2026-05-01 08:31 | 31.34219 | 104.37467 | 16305 ft | 433 kts | 354° |
| 2026-05-01 08:31 | 31.37229 | 104.37289 | 16673 ft | 434 kts | 354° |
| 2026-05-01 08:32 | 31.40250 | 104.37111 | 17031 ft | 435 kts | 355° |
| 2026-05-01 08:32 | 31.43277 | 104.36933 | 17371 ft | 436 kts | 355° |
| 2026-05-01 08:32 | 31.46312 | 104.36756 | 17705 ft | 438 kts | 355° |
| 2026-05-01 08:32 | 31.49358 | 104.36578 | 18044 ft | 439 kts | 355° |
| 2026-05-01 08:33 | 31.52414 | 104.36399 | 18335 ft | 440 kts | 355° |
| 2026-05-01 08:33 | 31.55483 | 104.36217 | 18595 ft | 443 kts | 355° |
| 2026-05-01 08:33 | 31.58566 | 104.36037 | 18845 ft | 445 kts | 355° |
| 2026-05-01 08:33 | 31.61670 | 104.35855 | 19123 ft | 447 kts | 354° |
| 2026-05-01 08:34 | 31.64790 | 104.35671 | 19400 ft | 449 kts | 354° |
| 2026-05-01 08:34 | 31.67876 | 104.35491 | 19680 ft | 451 kts | 354° |
| 2026-05-01 08:34 | 31.71015 | 104.35310 | 19970 ft | 452 kts | 354° |
| 2026-05-01 08:34 | 31.74159 | 104.35128 | 20234 ft | 454 kts | 354° |
| 2026-05-01 08:35 | 31.77323 | 104.34944 | 20485 ft | 455 kts | 354° |
| 2026-05-01 08:35 | 31.80494 | 104.34768 | 20761 ft | 457 kts | 354° |
| 2026-05-01 08:35 | 31.83686 | 104.34601 | 20970 ft | 460 kts | 354° |
| 2026-05-01 08:35 | 31.86892 | 104.34441 | 21207 ft | 462 kts | 354° |
| 2026-05-01 08:36 | 31.90113 | 104.34283 | 21472 ft | 464 kts | 354° |
| 2026-05-01 08:36 | 31.93347 | 104.34124 | 21764 ft | 465 kts | 354° |
| 2026-05-01 08:36 | 31.96591 | 104.33963 | 22026 ft | 467 kts | 354° |
| 2026-05-01 08:36 | 31.99845 | 104.33796 | 22300 ft | 469 kts | 354° |
| 2026-05-01 08:37 | 32.03072 | 104.33629 | 22573 ft | 470 kts | 353° |
| 2026-05-01 08:37 | 32.06351 | 104.33461 | 22819 ft | 472 kts | 353° |
| 2026-05-01 08:37 | 32.09639 | 104.33291 | 23035 ft | 475 kts | 354° |
| 2026-05-01 08:37 | 32.12946 | 104.33120 | 23250 ft | 476 kts | 354° |
| 2026-05-01 08:38 | 32.16277 | 104.32945 | 23483 ft | 478 kts | 354° |
| 2026-05-01 08:38 | 32.19600 | 104.32769 | 23678 ft | 479 kts | 353° |
| 2026-05-01 08:38 | 32.22939 | 104.32593 | 23904 ft | 480 kts | 353° |
| 2026-05-01 08:38 | 32.26277 | 104.32420 | 24108 ft | 481 kts | 353° |
| 2026-05-01 08:39 | 32.29623 | 104.32250 | 24330 ft | 482 kts | 353° |
| 2026-05-01 08:39 | 32.32976 | 104.32079 | 24536 ft | 482 kts | 353° |
| 2026-05-01 08:39 | 32.36336 | 104.31907 | 24735 ft | 484 kts | 354° |
| 2026-05-01 08:39 | 32.39712 | 104.31733 | 24926 ft | 486 kts | 354° |
| 2026-05-01 08:40 | 32.46477 | 104.31393 | 25388 ft | 488 kts | 354° |
| 2026-05-01 08:40 | 32.49868 | 104.31237 | 25694 ft | 487 kts | 354° |
| 2026-05-01 08:40 | 32.53210 | 104.31086 | 26011 ft | 485 kts | 354° |
| 2026-05-01 08:41 | 32.56577 | 104.30929 | 26304 ft | 484 kts | 354° |
| 2026-05-01 08:41 | 32.59937 | 104.30768 | 26662 ft | 482 kts | 354° |
| 2026-05-01 08:41 | 32.63283 | 104.30605 | 27016 ft | 481 kts | 354° |
| 2026-05-01 08:41 | 32.66631 | 104.30438 | 27365 ft | 480 kts | 354° |
| 2026-05-01 08:42 | 32.69964 | 104.30274 | 27687 ft | 479 kts | 354° |
| 2026-05-01 08:42 | 32.73293 | 104.30115 | 27974 ft | 478 kts | 354° |
| 2026-05-01 08:42 | 32.76621 | 104.29954 | 28271 ft | 478 kts | 354° |
| 2026-05-01 08:42 | 32.79940 | 104.29796 | 28593 ft | 476 kts | 354° |
| 2026-05-01 08:43 | 32.83251 | 104.29635 | 28855 ft | 475 kts | 354° |
| 2026-05-01 08:43 | 32.85441 | 104.29526 | 29038 ft | 475 kts | 354° |
| 2026-05-01 08:43 | 32.89823 | 104.29310 | 29334 ft | 476 kts | 352° |
| 2026-05-01 08:43 | 32.93136 | 104.29148 | 29520 ft | 477 kts | 352° |
| 2026-05-01 08:44 | 32.96447 | 104.28989 | 29744 ft | 477 kts | 352° |
| 2026-05-01 08:44 | 32.99766 | 104.28832 | 29997 ft | 477 kts | 352° |
| 2026-05-01 08:44 | 33.03085 | 104.28674 | 30219 ft | 476 kts | 352° |
| 2026-05-01 08:44 | 33.05277 | 104.28570 | 30356 ft | 476 kts | 352° |
| 2026-05-01 08:45 | 33.09710 | 104.28360 | 30638 ft | 475 kts | 353° |
| 2026-05-01 08:45 | 33.11898 | 104.28255 | 30781 ft | 475 kts | 352° |
| 2026-05-01 08:45 | 33.15203 | 104.28096 | 30982 ft | 475 kts | 352° |
| 2026-05-01 08:45 | 33.18497 | 104.27935 | 31229 ft | 474 kts | 352° |
| 2026-05-01 08:46 | 33.21794 | 104.27772 | 31515 ft | 472 kts | 352° |
| 2026-05-01 08:46 | 33.25077 | 104.27610 | 31773 ft | 472 kts | 352° |
| 2026-05-01 08:46 | 33.28355 | 104.27448 | 32023 ft | 471 kts | 352° |
| 2026-05-01 08:46 | 33.31624 | 104.27266 | 32291 ft | 468 kts | 349° |
| 2026-05-01 08:47 | 33.34813 | 104.26649 | 32524 ft | 460 kts | 340° |
| 2026-05-01 08:47 | 33.37822 | 104.25451 | 32766 ft | 453 kts | 331° |
| 2026-05-01 08:47 | 33.40610 | 104.23753 | 33030 ft | 447 kts | 324° |
| 2026-05-01 08:47 | 33.43305 | 104.21915 | 33304 ft | 444 kts | 324° |
| 2026-05-01 08:48 | 33.45991 | 104.20086 | 33500 ft | 445 kts | 325° |
| 2026-05-01 08:48 | 33.48686 | 104.18254 | 33626 ft | 446 kts | 325° |
| 2026-05-01 08:48 | 33.51383 | 104.16420 | 33762 ft | 446 kts | 325° |
| 2026-05-01 08:48 | 33.54082 | 104.14580 | 33918 ft | 447 kts | 325° |
| 2026-05-01 08:49 | 33.59925 | 104.11732 | 33960 ft | 464 kts | 343° |
| 2026-05-01 08:49 | 33.66403 | 104.11195 | 33984 ft | 475 kts | 356° |
| 2026-05-01 08:50 | 33.73026 | 104.11218 | 33961 ft | 477 kts | 355° |
| 2026-05-01 08:50 | 33.79159 | 104.11204 | 34127 ft | 448 kts | 355° |
| 2026-05-01 08:51 | 33.82111 | 104.11184 | 34804 ft | 403 kts | 354° |
| 2026-05-01 08:51 | 33.84849 | 104.11141 | 34534 ft | 388 kts | 352° |